Pagrindinis puslapis
METAR-TAF:

METAR-TAF

Oro uostai :

Brunėjus, Brunėjus

platuma: 04-56N, ilguma: 114-56E, Aukštis: 22 m

Dabartinis oras

Ataskaita buvo paskelbta 26 minutes, ne 00:00 UTC
Vėjas 3 kt iš Pietvakarių
Temperatūra 26°C
Drėgmė 89%
Slėgis 1008 hPa
Matomumas 10 km arba daugiau
Mažai debesys ne aukštis 1500 ft
Su prošvaistėmis ne aukštis 14000 ft

METAR: WBSB 260000Z 23003KT 9999 FEW015 BKN140 26/24 Q1008 NOSIG

Laikas: 08:26 (00:26 UTC)

Prognozė

Ataskaita buvo paskelbta 1 valandą ir 36 minutes, ne 22:50 UTC
Prognozė galioja nuo 26 metu 00 UTC su 27 metu 06 UTC
Vėjas 3 kt iš Pietų/Pietvakarių
Matomumas 10 km arba daugiau
Mažai debesys ne aukštis 1500 ft
Tapsmas
nuo 26 metu 03 UTC su 26 metu 05 UTC
Vėjas 10 kt iš Vakarų/Šiaurės Vakarų
Išsisklaidę debesys ne aukštis 1600 ft
Mažai debesys ne aukštis 1700 ft, Liūtiniai kamuoliniai debesys.
Laikinai
nuo 26 metu 04 UTC su 26 metu 06 UTC
Matomumas: 8000 m
lietus

TAF: WBSB 252250Z 2600/2706 20003KT 9999 FEW015 BECMG 2603/2605 30010KT SCT016 FEW017CB TEMPO 2604/2606 8000 SHRA

Orai ataskaitas ir orų prognozės (METAR, TAF).

turimą stotys yra geltonos ir raudonos taškus žemėlapyje.

Perkelti pele per norėdami pamatyti stoties vardą.

Tada spustelėkite, norėdami matyti oro stebėjimo ir prognozės.

Norėdami pakeisti žemėlapį: spustelėkite ant žalios mygtukų su juodo kryžiaus žemyn,; žalią mygtuką su brūkšneliu, jei norite nutolinti; arba žalių rodyklių gretimoms žemėlapius.


METAR-TAF: